createdAt,value
2022-09-20T00:01:14.165Z,73.56
2022-09-20T00:04:16.490Z,73.71
2022-09-20T00:07:18.628Z,73.88
2022-09-20T00:10:23.187Z,73.73
2022-09-20T00:13:25.324Z,73.71
2022-09-20T00:16:29.099Z,73.87
2022-09-20T00:19:31.270Z,74.05
2022-09-20T00:22:33.687Z,73.97
2022-09-20T00:25:35.737Z,74.06
2022-09-20T00:28:38.123Z,74.14
2022-09-20T00:31:42.788Z,74.40
2022-09-20T00:35:04.106Z,74.48
2022-09-20T00:38:06.175Z,74.61
2022-09-20T00:41:08.991Z,74.44
2022-09-20T00:44:29.584Z,74.46
2022-09-20T00:47:31.895Z,74.55
2022-09-20T00:50:38.051Z,74.51
2022-09-20T00:53:43.214Z,74.58
2022-09-20T00:56:45.273Z,74.55
2022-09-20T00:59:49.212Z,74.65
2022-09-20T01:02:55.144Z,74.79
2022-09-20T01:05:58.987Z,74.91
2022-09-20T01:09:03.077Z,74.80
2022-09-20T01:12:06.882Z,74.90
2022-09-20T01:15:09.568Z,74.66
2022-09-20T01:18:13.263Z,74.79
2022-09-20T01:21:15.771Z,74.72
2022-09-20T01:24:17.995Z,74.87
2022-09-20T01:27:40.274Z,74.66
2022-09-20T01:31:01.229Z,74.69
2022-09-20T01:34:03.228Z,74.61
2022-09-20T01:37:16.558Z,74.38
2022-09-20T01:40:28.875Z,74.23
2022-09-20T01:43:40.384Z,74.42
2022-09-20T01:46:43.929Z,74.54
2022-09-20T01:50:04.758Z,74.38
2022-09-20T01:53:06.832Z,74.47
2022-09-20T01:56:30.219Z,74.39
2022-09-20T01:59:32.507Z,74.42
2022-09-20T02:02:35.087Z,74.56
2022-09-20T02:05:53.028Z,74.51
2022-09-20T02:08:57.903Z,74.61
2022-09-20T02:12:19.641Z,74.54
2022-09-20T02:15:27.621Z,74.69
2022-09-20T02:18:45.292Z,74.71
2022-09-20T02:21:54.025Z,74.80
2022-09-20T02:25:05.514Z,74.93
2022-09-20T02:28:26.133Z,74.98
2022-09-20T02:31:40.952Z,75.17
2022-09-20T02:34:49.347Z,75.10
2022-09-20T02:37:57.634Z,75.15
2022-09-20T02:41:18.607Z,75.10
2022-09-20T02:44:33.070Z,75.03
2022-09-20T02:47:43.503Z,75.04
2022-09-20T02:50:49.797Z,74.94
2022-09-20T02:54:07.249Z,74.94
2022-09-20T02:57:28.417Z,75.03
2022-09-20T03:00:38.377Z,75.12
2022-09-20T03:04:01.397Z,74.96
2022-09-20T03:07:10.670Z,74.84
2022-09-20T03:10:13.016Z,74.96
2022-09-20T03:13:15.022Z,75.05
2022-09-20T03:16:17.362Z,75.11
2022-09-20T03:19:37.823Z,75.16
2022-09-20T03:22:43.179Z,75.14
2022-09-20T03:25:51.454Z,75.33
2022-09-20T03:28:53.743Z,75.44
2022-09-20T03:32:01.616Z,75.35
2022-09-20T03:35:16.452Z,75.49
2022-09-20T03:38:31.227Z,75.30
2022-09-20T03:41:41.141Z,75.48
2022-09-20T03:44:52.497Z,75.32
2022-09-20T03:48:22.232Z,75.44
2022-09-20T03:51:45.384Z,75.49
2022-09-20T03:54:50.924Z,75.43
2022-09-20T03:57:55.998Z,75.56
2022-09-20T04:01:28.012Z,75.47
2022-09-20T04:04:30.487Z,75.52
2022-09-20T04:07:32.644Z,75.54
2022-09-20T04:10:55.104Z,75.48
2022-09-20T04:14:16.593Z,75.54
2022-09-20T04:17:25.173Z,75.73
2022-09-20T04:20:38.930Z,75.65
2022-09-20T04:23:51.500Z,75.67
2022-09-20T04:27:01.249Z,75.68
2022-09-20T04:30:07.029Z,75.89
2022-09-20T04:33:15.083Z,75.85
2022-09-20T04:36:30.418Z,75.87
2022-09-20T04:39:36.065Z,75.99
2022-09-20T04:42:59.755Z,75.99
2022-09-20T04:46:09.981Z,75.95
2022-09-20T04:49:21.480Z,76.07
2022-09-20T04:52:39.334Z,75.99
2022-09-20T04:56:10.078Z,75.91
2022-09-20T04:59:38.748Z,76.11
2022-09-20T05:02:50.686Z,75.94
2022-09-20T05:05:56.351Z,75.80
2022-09-20T05:09:14.199Z,75.56
2022-09-20T05:12:58.660Z,75.63
2022-09-20T05:16:04.396Z,75.43
2022-09-20T05:19:12.242Z,75.21
2022-09-20T05:22:19.191Z,75.40
2022-09-20T05:25:27.253Z,75.36
2022-09-20T05:28:49.732Z,75.10
2022-09-20T05:31:54.963Z,74.98
2022-09-20T05:35:04.765Z,74.79
2022-09-20T05:38:19.071Z,74.78
2022-09-20T05:41:39.295Z,74.64
2022-09-20T05:44:47.567Z,74.42
2022-09-20T05:48:08.616Z,74.28
2022-09-20T05:51:23.871Z,74.14
2022-09-20T05:54:45.953Z,73.73
2022-09-20T05:58:05.691Z,73.58
2022-09-20T06:01:32.045Z,73.57
2022-09-20T06:04:57.450Z,73.21
2022-09-20T06:08:03.807Z,72.77
2022-09-20T06:11:10.672Z,72.46
2022-09-20T06:14:27.666Z,72.22
2022-09-20T06:17:37.783Z,71.97
2022-09-20T06:21:20.351Z,71.70
2022-09-20T06:24:37.657Z,71.54
2022-09-20T06:27:47.465Z,71.00
2022-09-20T06:31:02.718Z,70.70
2022-09-20T06:34:13.309Z,70.43
2022-09-20T06:37:40.414Z,69.74
2022-09-20T06:41:07.104Z,69.54
2022-09-20T06:44:09.678Z,68.59
2022-09-20T06:47:14.599Z,67.83
2022-09-20T06:50:17.497Z,66.93
2022-09-20T06:53:23.710Z,66.58
2022-09-20T06:56:28.277Z,65.68
2022-09-20T06:59:32.254Z,65.35
2022-09-20T07:02:37.125Z,64.65
2022-09-20T07:05:39.483Z,63.99
2022-09-20T07:08:43.424Z,63.28
2022-09-20T07:11:46.339Z,62.28
2022-09-20T07:14:50.583Z,61.55
2022-09-20T07:17:53.058Z,60.75
2022-09-20T07:20:58.888Z,60.21
2022-09-20T07:24:02.142Z,59.42
2022-09-20T07:27:05.502Z,58.08
2022-09-20T07:30:08.194Z,57.10
2022-09-20T07:33:17.238Z,55.77
2022-09-20T07:36:19.498Z,55.12
2022-09-20T07:39:27.900Z,53.73
2022-09-20T07:42:30.231Z,53.25
2022-09-20T07:45:34.240Z,45.67
2022-09-20T07:48:36.918Z,39.92
2022-09-20T07:51:39.420Z,34.31
2022-09-20T07:54:41.680Z,31.25
2022-09-20T07:57:44.197Z,29.37
2022-09-20T08:00:51.239Z,28.11
2022-09-20T08:03:54.846Z,28.08
2022-09-20T08:06:58.642Z,29.43
2022-09-20T08:10:00.896Z,32.69
2022-09-20T08:16:27.120Z,35.83
2022-09-20T08:19:30.486Z,38.22
2022-09-20T08:22:32.982Z,39.04
2022-09-20T08:25:35.245Z,37.93
2022-09-20T08:28:38.484Z,37.71
2022-09-20T08:31:42.468Z,37.76
2022-09-20T08:34:49.200Z,37.54
2022-09-20T08:37:55.233Z,38.42
2022-09-20T08:40:59.831Z,39.99
2022-09-20T08:44:10.746Z,40.63
2022-09-20T08:47:13.258Z,39.74
2022-09-20T08:50:18.391Z,40.20
2022-09-20T08:53:21.736Z,39.26
2022-09-20T08:56:26.511Z,41.15
2022-09-20T08:59:29.449Z,41.64
2022-09-20T09:02:32.445Z,41.96
2022-09-20T09:05:36.523Z,42.25
2022-09-20T09:08:44.659Z,43.52
2022-09-20T09:11:49.264Z,43.98
2022-09-20T09:14:55.271Z,44.55
2022-09-20T09:17:58.094Z,44.00
2022-09-20T09:21:04.310Z,43.56
2022-09-20T09:24:17.030Z,42.94
2022-09-20T09:27:19.776Z,42.40
2022-09-20T09:30:26.660Z,42.02
2022-09-20T09:33:34.977Z,41.68
2022-09-20T09:36:44.151Z,41.52
2022-09-20T09:39:47.097Z,41.05
2022-09-20T09:42:57.278Z,40.05
2022-09-20T09:46:29.539Z,38.98
2022-09-20T09:49:36.239Z,39.07
2022-09-20T09:52:38.691Z,39.29
2022-09-20T09:55:59.814Z,38.66
2022-09-20T09:59:23.104Z,38.09
2022-09-20T10:02:44.297Z,38.10
2022-09-20T10:05:55.808Z,37.26
2022-09-20T10:09:03.819Z,35.86
2022-09-20T10:12:26.301Z,36.37
2022-09-20T10:15:31.710Z,36.37
2022-09-20T10:18:33.987Z,37.32
2022-09-20T10:21:39.074Z,37.47
2022-09-20T10:25:10.341Z,38.62
2022-09-20T10:28:28.101Z,39.15
2022-09-20T10:31:36.903Z,39.70
2022-09-20T10:34:39.357Z,39.08
2022-09-20T10:38:14.553Z,38.81
2022-09-20T10:42:13.771Z,37.57
2022-09-20T10:45:44.326Z,36.93
2022-09-20T10:48:52.982Z,37.71
2022-09-20T10:52:13.933Z,38.87
2022-09-20T10:55:20.412Z,39.48
2022-09-20T10:58:56.479Z,39.79
2022-09-20T11:02:17.217Z,40.47
2022-09-20T11:05:22.489Z,39.26
2022-09-20T11:08:26.986Z,38.63
2022-09-20T11:11:32.873Z,37.80
2022-09-20T11:14:38.945Z,37.29
2022-09-20T11:17:49.841Z,37.55
2022-09-20T11:20:55.362Z,38.27
2022-09-20T11:23:58.221Z,38.63
2022-09-20T11:27:06.896Z,40.14
2022-09-20T11:30:21.591Z,40.43
2022-09-20T11:33:31.753Z,40.49
2022-09-20T11:36:42.853Z,41.47
2022-09-20T11:39:50.369Z,42.31
2022-09-20T11:42:53.416Z,43.29
2022-09-20T11:46:00.142Z,44.29
2022-09-20T11:49:11.645Z,44.54
2022-09-20T11:52:26.215Z,44.25
2022-09-20T11:55:48.279Z,42.62
2022-09-20T11:58:55.967Z,41.94
2022-09-20T12:02:01.798Z,41.37
2022-09-20T12:05:06.027Z,39.65
2022-09-20T12:08:19.448Z,38.64
2022-09-20T12:11:31.084Z,38.50
2022-09-20T12:14:42.300Z,37.79
2022-09-20T12:17:51.371Z,36.83
2022-09-20T12:20:56.431Z,36.09
2022-09-20T12:23:58.816Z,35.76
2022-09-20T12:27:07.264Z,35.82
2022-09-20T12:30:19.647Z,35.59
2022-09-20T12:33:22.219Z,35.80
2022-09-20T12:36:25.528Z,35.30
2022-09-20T12:39:30.240Z,34.28
2022-09-20T12:42:33.446Z,34.19
2022-09-20T12:45:36.991Z,35.07
2022-09-20T12:48:41.803Z,35.42
2022-09-20T12:52:09.738Z,35.69
2022-09-20T12:55:13.278Z,36.61
2022-09-20T12:58:22.940Z,37.58
2022-09-20T13:01:25.333Z,38.02
2022-09-20T13:04:40.354Z,39.11
2022-09-20T13:07:48.014Z,39.87
2022-09-20T13:11:02.371Z,39.99
2022-09-20T13:14:10.417Z,40.10
2022-09-20T13:17:13.613Z,40.81
2022-09-20T13:20:28.046Z,41.22
2022-09-20T13:23:32.145Z,41.77
2022-09-20T13:26:39.603Z,41.09
2022-09-20T13:29:43.029Z,40.44
2022-09-20T13:32:45.637Z,39.67
2022-09-20T13:35:48.433Z,39.67
2022-09-20T13:38:51.061Z,39.45
2022-09-20T13:41:53.251Z,39.72
2022-09-20T13:44:57.171Z,39.88
2022-09-20T13:48:00.138Z,40.84
2022-09-20T13:51:02.623Z,41.64
2022-09-20T13:54:24.305Z,41.96
2022-09-20T13:57:30.914Z,42.47
2022-09-20T14:00:57.789Z,42.74
2022-09-20T14:04:18.694Z,42.24
2022-09-20T14:07:21.241Z,42.93
2022-09-20T14:10:28.179Z,41.48
2022-09-20T14:13:33.496Z,40.68
2022-09-20T14:16:39.595Z,40.41
2022-09-20T14:19:42.552Z,40.47
2022-09-20T14:22:47.126Z,40.29
2022-09-20T14:26:07.903Z,41.08
2022-09-20T14:29:30.335Z,41.37
2022-09-20T14:32:32.333Z,41.95
2022-09-20T14:35:34.706Z,42.54
2022-09-20T14:38:37.994Z,42.47
2022-09-20T14:41:43.753Z,42.49
2022-09-20T14:44:50.190Z,42.65
2022-09-20T14:47:57.007Z,42.85
2022-09-20T14:51:08.338Z,43.21
2022-09-20T14:54:11.604Z,43.00
2022-09-20T14:57:16.588Z,42.99
2022-09-20T15:00:19.524Z,43.43
2022-09-20T15:03:31.031Z,43.55
2022-09-20T15:06:34.964Z,43.68
2022-09-20T15:09:37.411Z,44.25
2022-09-20T15:12:42.265Z,44.93
2022-09-20T15:15:44.499Z,45.30
2022-09-20T15:18:47.147Z,45.53
2022-09-20T15:21:51.661Z,45.98
2022-09-20T15:24:54.093Z,46.28
2022-09-20T15:27:57.852Z,47.06
2022-09-20T15:31:00.402Z,47.58
2022-09-20T15:34:08.254Z,48.94
2022-09-20T15:37:10.577Z,49.58
2022-09-20T15:40:12.816Z,50.53
2022-09-20T15:43:18.122Z,49.60
2022-09-20T15:46:22.037Z,49.68
2022-09-20T15:49:25.446Z,49.62
2022-09-20T15:52:34.416Z,50.34
2022-09-20T15:55:38.953Z,50.69
2022-09-20T15:58:43.915Z,51.41
2022-09-20T16:01:48.228Z,52.31
2022-09-20T16:04:54.812Z,53.75
2022-09-20T16:07:57.988Z,54.17
2022-09-20T16:11:00.727Z,54.67
2022-09-20T16:14:02.749Z,55.29
2022-09-20T16:17:06.563Z,56.41
2022-09-20T16:20:08.950Z,57.69
2022-09-20T16:23:16.532Z,59.10
2022-09-20T16:26:19.726Z,59.10
2022-09-20T16:29:22.411Z,60.24
2022-09-20T16:32:24.404Z,59.46
2022-09-20T16:35:26.695Z,60.85
2022-09-20T16:38:28.724Z,62.85
2022-09-20T16:41:32.422Z,63.00
2022-09-20T16:44:35.576Z,64.41
2022-09-20T16:47:41.140Z,64.66
2022-09-20T16:50:48.756Z,64.19
2022-09-20T16:53:56.429Z,65.35
2022-09-20T16:57:01.422Z,65.33
2022-09-20T17:00:05.446Z,65.12
2022-09-20T17:03:09.896Z,63.13
2022-09-20T17:06:12.353Z,64.01
2022-09-20T17:09:15.337Z,63.81
2022-09-20T17:12:22.104Z,63.56
2022-09-20T17:15:24.511Z,64.68
2022-09-20T17:18:31.220Z,64.59
2022-09-20T17:21:37.365Z,63.89
2022-09-20T17:24:39.681Z,64.98
2022-09-20T17:27:43.159Z,65.25
2022-09-20T17:30:53.725Z,65.49
2022-09-20T17:33:59.976Z,65.17
2022-09-20T17:37:03.438Z,65.29
2022-09-20T17:40:05.806Z,66.13
2022-09-20T17:43:08.203Z,66.57
2022-09-20T17:46:13.135Z,66.72
2022-09-20T17:49:18.145Z,66.64
2022-09-20T17:52:20.394Z,66.20
2022-09-20T17:55:23.675Z,65.79
2022-09-20T17:58:26.245Z,66.04
2022-09-20T18:01:29.258Z,66.17
2022-09-20T18:04:32.445Z,65.21
2022-09-20T18:07:34.434Z,64.71
2022-09-20T18:10:36.775Z,65.16
2022-09-20T18:13:38.823Z,65.22
2022-09-20T18:16:43.139Z,65.43
2022-09-20T18:19:45.139Z,65.74
2022-09-20T18:22:49.763Z,66.21
2022-09-20T18:26:12.546Z,65.97
2022-09-20T18:29:17.829Z,66.46
2022-09-20T18:32:19.909Z,67.03
2022-09-20T18:35:22.939Z,67.55
2022-09-20T18:38:24.930Z,67.35
2022-09-20T18:41:28.608Z,67.36
2022-09-20T18:44:32.319Z,67.71
2022-09-20T18:47:34.619Z,67.60
2022-09-20T18:50:36.651Z,67.57
2022-09-20T18:53:39.026Z,67.13
2022-09-20T18:56:42.190Z,67.10
2022-09-20T18:59:54.082Z,67.35
2022-09-20T19:03:22.760Z,67.31
2022-09-20T19:06:30.588Z,67.34
2022-09-20T19:09:37.258Z,66.96
2022-09-20T19:12:39.620Z,67.01
2022-09-20T19:15:48.790Z,66.80
2022-09-20T19:19:02.495Z,66.91
2022-09-20T19:22:18.874Z,67.11
2022-09-20T19:25:40.828Z,67.28
2022-09-20T19:28:44.966Z,67.23
2022-09-20T19:31:56.141Z,67.42
2022-09-20T19:35:01.955Z,67.51
2022-09-20T19:38:15.508Z,67.43
2022-09-20T19:41:20.806Z,67.59
2022-09-20T19:44:41.775Z,67.59
2022-09-20T19:48:00.182Z,67.50
2022-09-20T19:51:04.325Z,67.70
2022-09-20T19:54:06.810Z,67.51
2022-09-20T19:57:16.207Z,67.86
2022-09-20T20:00:19.911Z,67.95
2022-09-20T20:03:30.127Z,68.24
2022-09-20T20:06:53.809Z,68.43
2022-09-20T20:09:59.618Z,68.23
2022-09-20T20:13:26.821Z,68.50
2022-09-20T20:16:44.762Z,68.69
2022-09-20T20:19:54.221Z,69.03
2022-09-20T20:23:05.015Z,69.27
2022-09-20T20:26:17.581Z,69.35
2022-09-20T20:29:30.659Z,69.32
2022-09-20T20:32:32.868Z,69.25
2022-09-20T20:35:37.492Z,69.18
2022-09-20T20:38:49.928Z,69.37
2022-09-20T20:41:53.735Z,69.40
2022-09-20T20:44:58.173Z,69.62
2022-09-20T20:48:00.777Z,69.29
2022-09-20T20:51:09.689Z,69.58
2022-09-20T20:54:14.769Z,69.48
2022-09-20T20:57:19.028Z,69.64
2022-09-20T21:00:21.429Z,69.82
2022-09-20T21:03:26.273Z,70.05
2022-09-20T21:06:30.171Z,70.06
2022-09-20T21:09:32.210Z,70.19
2022-09-20T21:12:34.535Z,70.18
2022-09-20T21:15:36.589Z,70.21
2022-09-20T21:18:39.931Z,70.28
2022-09-20T21:21:43.700Z,70.59
2022-09-20T21:24:46.925Z,70.36
2022-09-20T21:27:49.477Z,70.56
2022-09-20T21:30:59.485Z,70.53
2022-09-20T21:34:06.010Z,70.62
2022-09-20T21:37:09.580Z,70.79
2022-09-20T21:40:17.831Z,70.75
2022-09-20T21:44:05.644Z,70.75
2022-09-20T21:54:36.837Z,71.01
2022-09-20T21:57:44.813Z,71.22
2022-09-20T22:04:29.236Z,71.38
2022-09-20T22:14:50.735Z,71.53
2022-09-20T22:18:10.818Z,71.56
2022-09-20T22:21:16.057Z,71.72
2022-09-20T22:24:22.708Z,71.85
2022-09-20T22:27:26.044Z,71.91
2022-09-20T22:30:30.007Z,71.96
2022-09-20T22:33:36.115Z,72.09
2022-09-20T22:36:40.504Z,72.18
2022-09-20T22:39:43.964Z,72.27
2022-09-20T22:42:46.388Z,72.47
2022-09-20T22:45:48.618Z,72.47
2022-09-20T22:48:51.376Z,72.70
2022-09-20T22:51:53.642Z,72.68
2022-09-20T22:54:56.311Z,72.79
2022-09-20T22:58:01.390Z,72.87
2022-09-20T23:01:05.597Z,72.83
2022-09-20T23:04:09.719Z,72.78
2022-09-20T23:07:12.285Z,72.64
2022-09-20T23:10:14.389Z,72.69
2022-09-20T23:13:16.877Z,72.82
2022-09-20T23:16:21.689Z,72.99
2022-09-20T23:19:24.230Z,73.14
2022-09-20T23:22:26.402Z,73.19
2022-09-20T23:25:29.579Z,73.30
2022-09-20T23:28:33.596Z,73.48
2022-09-20T23:31:37.088Z,73.53
2022-09-20T23:34:39.187Z,73.59
2022-09-20T23:37:41.513Z,73.54
2022-09-20T23:40:43.696Z,73.58
2022-09-20T23:43:46.175Z,73.63
2022-09-20T23:46:48.573Z,73.74
2022-09-20T23:49:53.383Z,73.80
2022-09-20T23:52:55.588Z,73.78
2022-09-20T23:55:58.055Z,73.84
2022-09-20T23:59:00.169Z,73.78
